地図

経路データ

SID SEASON NUMBER BASIN SUBBASIN NAME ISO_TIME NATURE LAT LON WMO_WIND WMO_PRES WMO_AGENCY TRACK_TYPE DIST2LAND LANDFALL IFLAG USA_AGENCY USA_ATCF_ID USA_LAT USA_LON USA_RECORD USA_STATUS USA_WIND USA_PRES USA_SSHS USA_R34_NE USA_R34_SE USA_R34_SW USA_R34_NW USA_R50_NE USA_R50_SE USA_R50_SW USA_R50_NW USA_R64_NE USA_R64_SE USA_R64_SW USA_R64_NW USA_POCI USA_ROCI USA_RMW USA_EYE TOKYO_LAT TOKYO_LON TOKYO_GRADE TOKYO_WIND TOKYO_PRES TOKYO_R50_DIR TOKYO_R50_LONG TOKYO_R50_SHORT TOKYO_R30_DIR TOKYO_R30_LONG TOKYO_R30_SHORT TOKYO_LAND CMA_LAT CMA_LON CMA_CAT CMA_WIND CMA_PRES HKO_LAT HKO_LON HKO_CAT HKO_WIND HKO_PRES NEWDELHI_LAT NEWDELHI_LON NEWDELHI_GRADE NEWDELHI_WIND NEWDELHI_PRES NEWDELHI_CI NEWDELHI_DP NEWDELHI_POCI REUNION_LAT REUNION_LON REUNION_TYPE REUNION_WIND REUNION_PRES REUNION_TNUM REUNION_CI REUNION_RMW REUNION_R34_NE REUNION_R34_SE REUNION_R34_SW REUNION_R34_NW REUNION_R50_NE REUNION_R50_SE REUNION_R50_SW REUNION_R50_NW REUNION_R64_NE REUNION_R64_SE REUNION_R64_SW REUNION_R64_NW BOM_LAT BOM_LON BOM_TYPE BOM_WIND BOM_PRES BOM_TNUM BOM_CI BOM_RMW BOM_R34_NE BOM_R34_SE BOM_R34_SW BOM_R34_NW BOM_R50_NE BOM_R50_SE BOM_R50_SW BOM_R50_NW BOM_R64_NE BOM_R64_SE BOM_R64_SW BOM_R64_NW BOM_ROCI BOM_POCI BOM_EYE BOM_POS_METHOD BOM_PRES_METHOD NADI_LAT NADI_LON NADI_CAT NADI_WIND NADI_PRES WELLINGTON_LAT WELLINGTON_LON WELLINGTON_WIND WELLINGTON_PRES DS824_LAT DS824_LON DS824_STAGE DS824_WIND DS824_PRES TD9636_LAT TD9636_LON TD9636_STAGE TD9636_WIND TD9636_PRES TD9635_LAT TD9635_LON TD9635_WIND TD9635_PRES TD9635_ROCI NEUMANN_LAT NEUMANN_LON NEUMANN_CLASS NEUMANN_WIND NEUMANN_PRES MLC_LAT MLC_LON MLC_CLASS MLC_WIND MLC_PRES USA_GUST BOM_GUST BOM_GUST_PER REUNION_GUST REUNION_GUST_PER USA_SEAHGT USA_SEARAD_NE USA_SEARAD_SE USA_SEARAD_SW USA_SEARAD_NW STORM_SPEED STORM_DIR
1898178N16116 1898 16 WP MM NOT_NAMED 1898-06-26 16:00:00 NR 15.6000 115.700 main 430 428 __________O___ -1 15.6000 115.700 7 5 347
1898178N16116 1898 16 WP MM NOT_NAMED 1898-06-26 18:00:00 NR 15.7727 115.667 main 428 427 __________P___ -1 15.7727 115.667 7 5 350
1898178N16116 1898 16 WP MM NOT_NAMED 1898-06-26 21:00:00 NR 16.0232 115.617 main 438 438 __________P___ -1 16.0232 115.617 7 5 348
1898178N16116 1898 16 WP MM NOT_NAMED 1898-06-27 00:00:00 NR 16.2519 115.567 main 439 439 __________P___ -1 16.2519 115.567 7 4 347
1898178N16116 1898 16 WP MM NOT_NAMED 1898-06-27 03:00:00 NR 16.4455 115.517 main 450 451 __________P___ -1 16.4455 115.517 7 4 345
1898178N16116 1898 16 WP MM NOT_NAMED 1898-06-27 04:00:00 NR 16.5000 115.500 main 451 451 __________O___ -1 16.5000 115.500 3 3 344
1898178N16116 1898 16 WP MM NOT_NAMED 1898-06-27 06:00:00 NR 16.5926 115.467 main 453 453 __________P___ -1 16.5926 115.467 3 3 337
1898178N16116 1898 16 WP MM NOT_NAMED 1898-06-27 09:00:00 NR 16.6999 115.417 main 465 465 __________P___ -1 16.6999 115.417 3 2 333
1898178N16116 1898 16 WP MM NOT_NAMED 1898-06-27 12:00:00 NR 16.7859 115.367 main 467 467 __________P___ -1 16.7859 115.367 3 2 331
1898178N16116 1898 16 WP MM NOT_NAMED 1898-06-27 15:00:00 NR 16.8695 115.317 main 480 480 __________P___ -1 16.8695 115.317 3 2 330
1898178N16116 1898 16 WP MM NOT_NAMED 1898-06-27 16:00:00 NR 16.9000 115.300 main 480 480 __________O___ -1 16.9000 115.300 4 2 341
1898178N16116 1898 16 WP MM NOT_NAMED 1898-06-27 18:00:00 NR 16.9750 115.269 main 482 482 __________P___ -1 16.9750 115.269 4 3 340
1898178N16116 1898 16 WP MM NOT_NAMED 1898-06-27 21:00:00 NR 17.0937 115.223 main 495 495 __________P___ -1 17.0937 115.223 4 3 341
1898178N16116 1898 16 WP MM NOT_NAMED 1898-06-28 00:00:00 NR 17.2200 115.175 main 498 497 __________P___ -1 17.2200 115.175 4 3 340
1898178N16116 1898 16 WP MM NOT_NAMED 1898-06-28 03:00:00 NR 17.3537 115.120 main 497 497 __________P___ -1 17.3537 115.120 4 3 338
1898178N16116 1898 16 WP MM NOT_NAMED 1898-06-28 04:00:00 NR 17.4000 115.100 main 497 491 __________O___ -1 17.4000 115.100 4 3 333
1898178N16116 1898 16 WP MM NOT_NAMED 1898-06-28 06:00:00 NR 17.4943 115.053 main 491 477 __________P___ -1 17.4943 115.053 4 3 334
1898178N16116 1898 16 WP MM NOT_NAMED 1898-06-28 09:00:00 NR 17.6421 114.976 main 477 457 __________P___ -1 17.6421 114.976 4 3 333
1898178N16116 1898 16 WP MM NOT_NAMED 1898-06-28 12:00:00 NR 17.7946 114.898 main 457 443 __________P___ -1 17.7946 114.898 4 3 334
1898178N16116 1898 16 WP MM NOT_NAMED 1898-06-28 15:00:00 NR 17.9488 114.823 main 443 438 __________P___ -1 17.9488 114.823 4 3 335
1898178N16116 1898 16 WP MM NOT_NAMED 1898-06-28 16:00:00 NR 18.0000 114.800 main 438 433 __________O___ -1 18.0000 114.800 4 3 339
1898178N16116 1898 16 WP MM NOT_NAMED 1898-06-28 18:00:00 NR 18.0921 114.761 main 433 419 __________P___ -1 18.0921 114.761 4 3 339
1898178N16116 1898 16 WP MM NOT_NAMED 1898-06-28 21:00:00 NR 18.2301 114.709 main 419 411 __________P___ -1 18.2301 114.709 4 3 341
1898178N16116 1898 16 WP MM NOT_NAMED 1898-06-29 00:00:00 NR 18.3763 114.661 main 411 397 __________P___ -1 18.3763 114.661 4 3 345
1898178N16116 1898 16 WP MM NOT_NAMED 1898-06-29 03:00:00 NR 18.5399 114.615 main 397 394 __________P___ -1 18.5399 114.615 4 3 346
1898178N16116 1898 16 WP MM NOT_NAMED 1898-06-29 04:00:00 NR 18.6000 114.600 main 394 391 __________O___ -1 18.6000 114.600 4 4 347
1898178N16116 1898 16 WP MM NOT_NAMED 1898-06-29 06:00:00 NR 18.7328 114.582 main 391 364 __________P___ -1 18.7328 114.582 4 4 353
1898178N16116 1898 16 WP MM NOT_NAMED 1898-06-29 09:00:00 NR 18.9510 114.556 main 364 339 __________P___ -1 18.9510 114.556 4 5 351
1898178N16116 1898 16 WP MM NOT_NAMED 1898-06-29 12:00:00 NR 19.1836 114.514 main 339 315 __________P___ -1 19.1836 114.514 4 5 347
1898178N16116 1898 16 WP MM NOT_NAMED 1898-06-29 15:00:00 NR 19.4213 114.437 main 315 305 __________P___ -1 19.4213 114.437 4 5 342
1898178N16116 1898 16 WP MM NOT_NAMED 1898-06-29 16:00:00 NR 19.5000 114.400 main 305 290 __________O___ -1 19.5000 114.400 4 5 331
1898178N16116 1898 16 WP MM NOT_NAMED 1898-06-29 18:00:00 NR 19.6474 114.304 main 290 251 __________P___ -1 19.6474 114.304 4 5 324
1898178N16116 1898 16 WP MM NOT_NAMED 1898-06-29 21:00:00 NR 19.8685 114.121 main 251 221 __________P___ -1 19.8685 114.121 4 6 320
1898178N16116 1898 16 WP MM NOT_NAMED 1898-06-30 00:00:00 NR 20.0922 113.907 main 221 193 __________P___ -1 20.0922 113.907 4 6 317
1898178N16116 1898 16 WP MM NOT_NAMED 1898-06-30 03:00:00 NR 20.3217 113.677 main 193 178 __________P___ -1 20.3217 113.677 4 6 317
1898178N16116 1898 16 WP MM NOT_NAMED 1898-06-30 04:00:00 NR 20.4000 113.600 main 178 154 __________O___ -1 20.4000 113.600 4 6 320
1898178N16116 1898 16 WP MM NOT_NAMED 1898-06-30 06:00:00 NR 20.5608 113.463 main 154 126 __________P___ -1 20.5608 113.463 4 6 321
1898178N16116 1898 16 WP MM NOT_NAMED 1898-06-30 09:00:00 NR 20.8085 113.252 main 126 88 __________P___ -1 20.8085 113.252 4 6 321
1898178N16116 1898 16 WP MM NOT_NAMED 1898-06-30 12:00:00 NR 21.0610 113.029 main 88 59 __________P___ -1 21.0610 113.029 4 7 319
1898178N16116 1898 16 WP MM NOT_NAMED 1898-06-30 15:00:00 NR 21.3153 112.786 main 59 45 __________P___ -1 21.3153 112.786 4 7 318
1898178N16116 1898 16 WP MM NOT_NAMED 1898-06-30 16:00:00 NR 21.4000 112.700 main 45 22 __________O___ -1 21.4000 112.700 4 7 318
1898178N16116 1898 16 WP MM NOT_NAMED 1898-06-30 18:00:00 NR 21.5663 112.540 main 22 0 __________P___ -1 21.5663 112.540 4 7 317
1898178N16116 1898 16 WP MM NOT_NAMED 1898-06-30 21:00:00 NR 21.8158 112.283 main 0 0 __________P___ -1 21.8158 112.283 4 7 314
1898178N16116 1898 16 WP MM NOT_NAMED 1898-07-01 00:00:00 NR 22.0658 111.986 main 0 0 __________P___ -1 22.0658 111.986 4 8 310
1898178N16116 1898 16 WP MM NOT_NAMED 1898-07-01 03:00:00 NR 22.3163 111.634 main 0 0 __________P___ -1 22.3163 111.634 4 8 307
1898178N16116 1898 16 WP MM NOT_NAMED 1898-07-01 04:00:00 NR 22.4000 111.500 main 0 0 __________O___ -1 22.4000 111.500 4 9 303
1898178N16116 1898 16 WP MM NOT_NAMED 1898-07-01 06:00:00 NR 22.5746 111.209 main 0 0 __________P___ -1 22.5746 111.209 4 10 301
1898178N16116 1898 16 WP MM NOT_NAMED 1898-07-01 09:00:00 NR 22.8365 110.717 main 0 0 __________P___ -1 22.8365 110.717 4 11 298
1898178N16116 1898 16 WP MM NOT_NAMED 1898-07-01 12:00:00 NR 23.0902 110.173 main 0 0 __________P___ -1 23.0902 110.173 4 11 295
1898178N16116 1898 16 WP MM NOT_NAMED 1898-07-01 15:00:00 NR 23.3266 109.596 main 0 0 __________P___ -1 23.3266 109.596 4 12 294
1898178N16116 1898 16 WP MM NOT_NAMED 1898-07-01 16:00:00 NR 23.4000 109.400 main 0 0 __________O___ -1 23.4000 109.400 7 12 291
1898178N16116 1898 16 WP MM NOT_NAMED 1898-07-01 18:00:00 NR 23.5375 109.005 main 0 0 __________P___ -1 23.5375 109.005 7 12 290
1898178N16116 1898 16 WP MM NOT_NAMED 1898-07-01 21:00:00 NR 23.7238 108.408 main 0 0 __________P___ -1 23.7238 108.408 7 12 288
1898178N16116 1898 16 WP MM NOT_NAMED 1898-07-02 00:00:00 NR 23.8921 107.807 main 0 0 __________P___ -1 23.8921 107.807 7 12 286
1898178N16116 1898 16 WP MM NOT_NAMED 1898-07-02 03:00:00 NR 24.0490 107.202 main 0 0 __________P___ -1 24.0490 107.202 7 11 286
1898178N16116 1898 16 WP MM NOT_NAMED 1898-07-02 04:00:00 NR 24.1000 107.000 main 0 __________O___ -1 24.1000 107.000 7 11 285

デジタル台風データ・検索

IBTrACS Databaseについて

本データベースは、米国NOAAが公開する1842年以降の世界の熱帯低気圧のベストトラックデータアーカイブInternational Best Track Archive for Climate Stewardship (IBTrACS)を、ウェブで閲覧しやすい形式に変換したものです。

最終更新日:2021-10-27